Time;durP1;ratioP1;P1;durP2;ratioP2;P2;SDS_P1;SDS_P2;PMS_P1;PMS_P2;Temp;Humidity;BMP_temperature;BMP_pressure;BME280_temperature;BME280_humidity;BME280_pressure;Samples;Min_cycle;Max_cycle;Signal;HPM_P1;HPM_P2
2021/03/04 00:00:11;;;;;;;42.33;26.13;;;20.10;99.90;;;;;;5014332;28;20174;-47
2021/03/04 00:02:37;;;;;;;48.38;25.98;;;20.10;99.90;;;;;;5014412;28;20649;-47
2021/03/04 00:05:08;;;;;;;42.45;24.63;;;20.10;99.90;;;;;;5013877;28;20526;-48
2021/03/04 00:07:35;;;;;;;39.08;23.60;;;20.10;99.90;;;;;;5014063;28;20491;-47
2021/03/04 00:10:04;;;;;;;43.75;25.08;;;20.10;99.90;;;;;;5014151;28;20037;-46
2021/03/04 00:12:29;;;;;;;36.30;23.95;;;20.10;99.90;;;;;;5013906;28;20033;-49
2021/03/04 00:14:55;;;;;;;38.00;22.85;;;20.00;99.90;;;;;;5013407;28;20033;-48
2021/03/04 00:17:21;;;;;;;39.90;23.10;;;20.00;99.90;;;;;;5013728;28;20026;-48
2021/03/04 00:19:47;;;;;;;44.05;22.52;;;20.00;99.90;;;;;;5013469;28;20017;-47
2021/03/04 00:22:13;;;;;;;40.97;22.33;;;20.00;99.90;;;;;;5013238;28;20490;-46
2021/03/04 00:24:39;;;;;;;40.83;23.88;;;20.00;99.90;;;;;;5013086;28;20094;-46
2021/03/04 00:27:05;;;;;;;38.58;21.70;;;20.00;99.90;;;;;;5012970;28;20064;-49
2021/03/04 00:29:31;;;;;;;40.97;21.15;;;20.00;99.90;;;;;;5011502;28;20468;-48
2021/03/04 00:31:56;;;;;;;39.92;20.45;;;19.90;99.90;;;;;;5011745;28;20030;-49
2021/03/04 00:34:22;;;;;;;37.65;21.00;;;19.90;99.90;;;;;;5011859;28;20084;-49
2021/03/04 00:36:48;;;;;;;35.25;21.33;;;19.90;99.90;;;;;;5012031;28;20034;-47
2021/03/04 00:39:14;;;;;;;34.30;20.55;;;19.90;99.90;;;;;;5010316;28;20036;-47
2021/03/04 00:41:40;;;;;;;36.80;19.95;;;19.90;99.90;;;;;;5011503;28;20133;-46
2021/03/04 00:44:06;;;;;;;39.08;20.20;;;19.90;99.90;;;;;;5013102;28;20030;-47
2021/03/04 00:46:33;;;;;;;42.03;18.98;;;19.90;99.90;;;;;;5013730;28;20419;-46
2021/03/04 00:49:00;;;;;;;35.60;20.40;;;19.90;99.90;;;;;;5013677;28;20192;-46
2021/03/04 00:51:26;;;;;;;33.83;20.90;;;19.80;99.90;;;;;;5013587;28;20097;-48
2021/03/04 00:53:51;;;;;;;34.35;19.15;;;19.90;99.90;;;;;;5013397;28;20106;-48
2021/03/04 00:56:17;;;;;;;32.65;19.33;;;19.80;99.90;;;;;;5013466;28;20022;-46
2021/03/04 00:58:43;;;;;;;35.25;19.52;;;19.80;99.90;;;;;;5013392;28;20029;-47
2021/03/04 01:01:09;;;;;;;39.10;18.23;;;19.80;99.90;;;;;;5013344;28;20068;-47
2021/03/04 01:03:35;;;;;;;34.92;17.88;;;19.80;99.90;;;;;;5013141;28;20046;-46
2021/03/04 01:06:01;;;;;;;34.35;19.20;;;19.80;99.90;;;;;;5013359;28;20074;-46
2021/03/04 01:08:26;;;;;;;34.78;18.38;;;19.80;99.90;;;;;;5013416;28;20053;-47
2021/03/04 01:10:53;;;;;;;35.50;20.00;;;19.80;99.90;;;;;;5013398;28;20030;-46
2021/03/04 01:13:19;;;;;;;34.88;18.13;;;19.80;99.90;;;;;;5013723;28;20665;-46
2021/03/04 01:15:45;;;;;;;37.33;18.05;;;19.80;99.90;;;;;;5013246;28;20026;-46
2021/03/04 01:18:11;;;;;;;34.20;18.50;;;19.80;99.90;;;;;;5013486;28;20466;-47
2021/03/04 01:20:37;;;;;;;34.85;17.48;;;19.80;99.90;;;;;;5013291;28;20026;-46
2021/03/04 01:23:02;;;;;;;38.50;17.70;;;19.80;99.90;;;;;;5013409;28;20025;-47
2021/03/04 01:25:28;;;;;;;34.42;18.05;;;19.70;99.90;;;;;;5013210;28;20022;-46
2021/03/04 01:27:54;;;;;;;30.35;17.67;;;19.70;99.90;;;;;;5013128;28;20555;-46
2021/03/04 01:30:24;;;;;;;32.13;17.63;;;19.70;99.90;;;;;;5013240;28;20014;-47
2021/03/04 01:32:50;;;;;;;39.35;17.77;;;19.70;99.90;;;;;;5013066;28;20080;-47
2021/03/04 01:35:16;;;;;;;33.33;17.70;;;19.70;99.90;;;;;;5013086;28;20038;-46
2021/03/04 01:37:42;;;;;;;31.52;16.60;;;19.60;99.90;;;;;;5013066;28;20030;-48
2021/03/04 01:40:11;;;;;;;35.05;16.50;;;19.60;99.90;;;;;;5013581;28;20032;-47
2021/03/04 01:42:37;;;;;;;36.35;16.50;;;19.60;99.90;;;;;;5016538;28;20030;-46
2021/03/04 01:45:04;;;;;;;39.78;18.25;;;19.60;99.90;;;;;;5016518;28;20527;-47
2021/03/04 01:47:29;;;;;;;32.40;16.85;;;19.70;99.90;;;;;;5016880;28;20045;-46
2021/03/04 01:49:55;;;;;;;37.65;16.85;;;19.60;99.90;;;;;;5016549;28;20472;-49
2021/03/04 01:52:22;;;;;;;33.70;16.55;;;19.60;99.90;;;;;;5016023;28;20030;-47
2021/03/04 01:54:48;;;;;;;31.00;16.75;;;19.60;99.90;;;;;;5016324;28;20033;-47
2021/03/04 01:57:16;;;;;;;42.50;17.50;;;19.60;99.90;;;;;;5016495;28;20080;-46
2021/03/04 01:59:42;;;;;;;37.38;16.70;;;19.60;99.90;;;;;;5016431;28;20033;-47
2021/03/04 02:02:08;;;;;;;36.55;17.70;;;19.60;99.90;;;;;;5015941;28;20384;-49
2021/03/04 02:04:34;;;;;;;37.40;15.70;;;19.60;99.90;;;;;;5014869;28;20415;-49
2021/03/04 02:07:08;;;;;;;37.33;17.00;;;19.50;99.90;;;;;;5015238;28;20085;-49
2021/03/04 02:09:36;;;;;;;37.25;16.80;;;19.60;99.90;;;;;;5015517;28;20025;-48
2021/03/04 02:12:13;;;;;;;33.42;17.23;;;19.60;99.90;;;;;;5015859;28;20025;-47
2021/03/04 02:14:53;;;;;;;29.65;16.23;;;19.50;99.90;;;;;;5016082;28;20053;-47
2021/03/04 02:17:22;;;;;;;30.73;15.82;;;19.50;99.90;;;;;;5016127;28;20104;-47
2021/03/04 02:19:57;;;;;;;32.88;15.90;;;19.50;99.90;;;;;;5015683;28;20022;-49
2021/03/04 02:22:45;;;;;;;35.13;16.52;;;19.50;99.90;;;;;;5015122;28;20018;-49
2021/03/04 02:25:19;;;;;;;29.88;16.42;;;19.50;99.90;;;;;;4996006;28;20032;-48
2021/03/04 02:27:49;;;;;;;33.75;16.55;;;19.50;99.90;;;;;;5010383;28;20026;-47
2021/03/04 02:30:22;;;;;;;28.65;15.10;;;19.50;99.90;;;;;;5015746;28;20029;-47
2021/03/04 02:32:52;;;;;;;30.52;17.38;;;19.50;99.90;;;;;;5014328;28;20472;-47
2021/03/04 02:35:29;;;;;;;35.15;17.00;;;19.50;99.90;;;;;;5015729;28;20041;-47
2021/03/04 02:38:06;;;;;;;38.63;16.63;;;19.50;99.90;;;;;;5015333;28;20432;-47
2021/03/04 02:40:33;;;;;;;38.70;17.77;;;19.50;99.90;;;;;;5015431;28;20025;-47
2021/03/04 02:43:03;;;;;;;29.13;15.30;;;19.50;99.90;;;;;;5015301;28;20028;-47
2021/03/04 02:45:30;;;;;;;29.83;15.00;;;19.50;99.90;;;;;;5015407;28;20025;-47
2021/03/04 02:47:56;;;;;;;30.73;17.10;;;19.50;99.90;;;;;;5015460;28;20022;-47
2021/03/04 02:50:24;;;;;;;35.05;16.35;;;19.50;99.90;;;;;;5015361;28;20022;-47
2021/03/04 02:52:51;;;;;;;32.70;16.38;;;19.50;99.90;;;;;;5014761;28;20102;-47
2021/03/04 02:55:18;;;;;;;33.33;16.73;;;19.50;99.90;;;;;;5013978;28;20116;-47
2021/03/04 02:57:47;;;;;;;27.77;15.75;;;19.40;99.90;;;;;;5014974;28;20384;-48
2021/03/04 03:00:19;;;;;;;33.38;15.68;;;19.40;99.90;;;;;;5014566;28;20455;-48
2021/03/04 03:02:46;;;;;;;37.45;15.65;;;19.40;99.90;;;;;;5014674;28;20117;-48
2021/03/04 03:05:13;;;;;;;27.85;15.95;;;19.40;99.90;;;;;;5014467;28;20054;-47
2021/03/04 03:07:42;;;;;;;37.88;15.93;;;19.40;99.90;;;;;;5014754;28;20084;-47
2021/03/04 03:10:10;;;;;;;31.83;16.15;;;19.40;99.90;;;;;;5014947;28;20018;-47
2021/03/04 03:12:39;;;;;;;34.05;16.58;;;19.40;99.90;;;;;;5014733;28;20036;-47
2021/03/04 03:15:11;;;;;;;28.42;16.42;;;19.40;99.90;;;;;;5013558;28;20376;-47
2021/03/04 03:17:38;;;;;;;33.75;16.00;;;19.40;99.90;;;;;;5014614;28;20025;-47
2021/03/04 03:20:09;;;;;;;33.80;15.57;;;19.40;99.90;;;;;;5014777;28;20018;-47
2021/03/04 03:22:35;;;;;;;30.15;14.68;;;19.40;99.90;;;;;;5014827;28;20494;-47
2021/03/04 03:25:02;;;;;;;29.10;15.48;;;19.40;99.90;;;;;;5013404;28;20112;-48
2021/03/04 03:27:28;;;;;;;33.13;15.35;;;19.40;99.90;;;;;;5014912;28;20025;-48
2021/03/04 03:29:54;;;;;;;35.20;15.77;;;19.40;99.90;;;;;;5014557;28;20097;-48
2021/03/04 03:32:22;;;;;;;32.05;16.23;;;19.40;99.90;;;;;;5013116;28;20050;-48
2021/03/04 03:34:49;;;;;;;33.95;16.10;;;19.40;99.90;;;;;;5013267;28;20028;-48
2021/03/04 03:37:17;;;;;;;32.28;16.42;;;19.40;99.90;;;;;;5014421;28;20032;-47
2021/03/04 03:39:43;;;;;;;;;;;19.40;99.90;;;;;;5014891;28;20101;-47
2021/03/04 03:42:09;;;;;;;29.33;15.55;;;19.40;99.90;;;;;;5014868;28;19936;-48
2021/03/04 03:44:35;;;;;;;28.30;15.25;;;19.40;99.90;;;;;;5014506;28;20452;-47
2021/03/04 03:47:04;;;;;;;31.75;16.98;;;19.40;99.90;;;;;;5014184;28;20033;-48
2021/03/04 03:49:30;;;;;;;40.25;17.40;;;19.40;99.90;;;;;;5013878;28;20022;-47
2021/03/04 03:52:00;;;;;;;31.58;16.67;;;19.40;99.90;;;;;;5013692;28;20020;-47
2021/03/04 03:54:26;;;;;;;27.15;14.52;;;19.30;99.90;;;;;;5013652;28;20053;-48
2021/03/04 03:56:53;;;;;;;31.75;15.80;;;19.30;99.90;;;;;;5013854;28;20057;-48
2021/03/04 03:59:20;;;;;;;30.10;15.02;;;19.30;99.90;;;;;;5012547;28;20026;-47
2021/03/04 04:01:46;;;;;;;33.83;16.25;;;19.30;99.90;;;;;;5012342;28;20038;-48
2021/03/04 04:04:13;;;;;;;29.58;15.98;;;19.30;99.90;;;;;;5013440;28;20491;-48
2021/03/04 04:06:42;;;;;;;30.13;15.38;;;19.30;99.90;;;;;;5013803;28;20033;-47
2021/03/04 04:09:09;;;;;;;27.77;14.60;;;19.30;99.90;;;;;;5013723;28;20065;-47
2021/03/04 04:11:36;;;;;;;34.17;15.05;;;19.30;99.90;;;;;;5013444;28;20029;-47
2021/03/04 04:14:03;;;;;;;30.13;14.50;;;19.30;99.90;;;;;;5012631;28;20029;-47
2021/03/04 04:16:29;;;;;;;31.88;14.70;;;19.30;99.90;;;;;;5013076;28;20026;-47
2021/03/04 04:18:56;;;;;;;28.48;14.95;;;19.30;99.90;;;;;;5013786;28;20018;-47
2021/03/04 04:21:23;;;;;;;25.65;15.52;;;19.30;99.90;;;;;;5013886;28;20467;-48
2021/03/04 04:23:50;;;;;;;30.73;16.15;;;19.30;99.90;;;;;;5013987;28;20032;-47
2021/03/04 04:26:16;;;;;;;31.02;15.25;;;19.30;99.90;;;;;;5013628;28;20034;-48
2021/03/04 04:28:43;;;;;;;31.50;15.27;;;19.30;99.90;;;;;;5013193;28;20411;-48
2021/03/04 04:31:10;;;;;;;32.30;15.38;;;19.20;99.90;;;;;;5013417;28;20021;-48
2021/03/04 04:33:36;;;;;;;29.92;16.10;;;19.30;99.90;;;;;;5012716;28;20543;-48
2021/03/04 04:36:02;;;;;;;33.33;17.10;;;19.20;99.90;;;;;;5013528;28;20038;-47
2021/03/04 04:38:28;;;;;;;30.33;15.48;;;19.20;99.90;;;;;;5013728;28;20030;-47
2021/03/04 04:40:53;;;;;;;30.80;15.20;;;19.20;99.90;;;;;;5013609;28;20026;-47
2021/03/04 04:43:20;;;;;;;28.02;14.40;;;19.20;99.90;;;;;;5013469;28;20094;-47
2021/03/04 04:45:46;;;;;;;30.50;15.20;;;19.20;99.90;;;;;;5013053;28;20026;-47
2021/03/04 04:48:12;;;;;;;23.77;15.30;;;19.20;99.90;;;;;;5013362;28;20022;-47
2021/03/04 04:50:37;;;;;;;32.25;14.82;;;19.20;99.90;;;;;;5013347;28;20080;-47
2021/03/04 04:53:03;;;;;;;32.88;15.57;;;19.20;99.90;;;;;;5012430;28;20033;-47
2021/03/04 04:55:30;;;;;;;27.88;14.77;;;19.20;99.90;;;;;;5013389;28;20033;-48
2021/03/04 04:57:56;;;;;;;31.40;16.45;;;19.20;99.90;;;;;;5013473;28;20049;-47
2021/03/04 05:00:22;;;;;;;28.95;15.63;;;19.10;99.90;;;;;;5013840;28;20064;-48
2021/03/04 05:02:48;;;;;;;34.35;15.45;;;19.10;99.90;;;;;;5013344;28;20026;-47
2021/03/04 05:05:14;;;;;;;32.15;15.85;;;19.20;99.90;;;;;;5013157;28;20049;-47
2021/03/04 05:07:39;;;;;;;29.73;16.40;;;19.20;99.90;;;;;;5013388;28;20464;-48
2021/03/04 05:10:07;;;;;;;31.38;15.90;;;19.20;99.90;;;;;;5013174;28;20101;-48
2021/03/04 05:12:33;;;;;;;43.80;15.98;;;19.10;99.90;;;;;;5028229;28;20022;-47
2021/03/04 05:14:59;;;;;;;33.15;15.63;;;19.10;99.90;;;;;;5013972;28;20534;-47
2021/03/04 05:17:24;;;;;;;29.33;14.98;;;19.10;99.90;;;;;;5016965;28;20037;-47
2021/03/04 05:19:50;;;;;;;26.98;15.32;;;19.10;99.90;;;;;;5017136;28;20029;-48
2021/03/04 05:22:17;;;;;;;30.90;14.77;;;19.20;99.90;;;;;;5016988;28;20037;-48
2021/03/04 05:24:43;;;;;;;33.80;14.80;;;19.10;99.90;;;;;;5032114;28;20030;-48
2021/03/04 05:27:09;;;;;;;29.20;16.08;;;19.10;99.90;;;;;;5016836;28;20069;-47
2021/03/04 05:29:35;;;;;;;33.25;16.33;;;19.10;99.90;;;;;;5032159;28;20029;-48
2021/03/04 05:32:01;;;;;;;25.02;16.58;;;19.10;99.90;;;;;;5016913;28;20022;-48
2021/03/04 05:34:26;;;;;;;34.95;16.17;;;19.10;99.90;;;;;;5016717;28;20435;-48
2021/03/04 05:36:52;;;;;;;29.00;16.00;;;19.10;99.90;;;;;;5015500;28;20061;-48
2021/03/04 05:39:18;;;;;;;29.08;16.83;;;19.10;99.90;;;;;;5016600;28;20018;-48
2021/03/04 05:41:44;;;;;;;28.50;15.45;;;19.10;99.90;;;;;;5016899;28;20075;-47
2021/03/04 05:44:10;;;;;;;33.50;17.17;;;19.10;99.90;;;;;;5016687;28;20064;-47
2021/03/04 05:46:36;;;;;;;31.42;16.70;;;19.10;99.90;;;;;;5016391;28;20081;-47
2021/03/04 05:49:06;;;;;;;28.58;15.23;;;19.10;99.90;;;;;;5016430;28;20033;-48
2021/03/04 05:51:36;;;;;;;27.33;16.90;;;19.10;99.90;;;;;;5008803;28;20105;-47
2021/03/04 05:54:05;;;;;;;28.15;16.58;;;19.10;99.90;;;;;;4998782;28;20030;-48
2021/03/04 05:56:33;;;;;;;26.13;15.27;;;19.10;99.90;;;;;;5016477;28;20472;-47
2021/03/04 05:59:00;;;;;;;28.95;15.63;;;19.10;99.90;;;;;;5013867;28;20079;-47
2021/03/04 06:01:27;;;;;;;27.80;15.38;;;19.10;99.90;;;;;;5000411;28;20026;-47
2021/03/04 06:03:54;;;;;;;30.23;17.45;;;19.10;99.90;;;;;;5008915;28;20125;-47
2021/03/04 06:06:19;;;;;;;31.10;16.27;;;19.10;99.90;;;;;;5015590;28;20141;-48
2021/03/04 06:08:45;;;;;;;30.42;16.13;;;19.10;99.90;;;;;;5016103;28;20100;-47
2021/03/04 06:11:11;;;;;;;23.60;15.05;;;19.10;99.90;;;;;;5015431;28;20030;-48
2021/03/04 06:13:37;;;;;;;23.67;15.07;;;19.10;99.90;;;;;;5004458;28;20018;-48
2021/03/04 06:16:03;;;;;;;26.60;15.48;;;19.10;99.90;;;;;;5016033;28;20765;-47
2021/03/04 06:18:40;;;;;;;26.38;16.25;;;19.10;99.90;;;;;;5015580;28;20034;-47
2021/03/04 06:21:26;;;;;;;29.80;16.50;;;19.10;99.90;;;;;;5015757;28;20022;-47
2021/03/04 06:23:53;;;;;;;25.77;16.20;;;19.10;99.90;;;;;;5015970;28;20160;-48
2021/03/04 06:26:29;;;;;;;31.00;16.52;;;19.10;99.90;;;;;;5014878;28;20046;-47
2021/03/04 06:28:56;;;;;;;25.75;15.45;;;19.10;99.90;;;;;;5015513;28;20491;-48
2021/03/04 06:31:22;;;;;;;30.47;17.13;;;19.10;99.90;;;;;;5015669;28;20033;-48
2021/03/04 06:33:48;;;;;;;28.85;15.68;;;19.10;99.90;;;;;;5015443;28;20251;-47
2021/03/04 06:36:16;;;;;;;29.23;14.98;;;19.10;99.90;;;;;;5006661;28;20084;-48
2021/03/04 06:38:52;;;;;;;25.92;15.05;;;19.10;99.90;;;;;;5014227;28;20412;-49
2021/03/04 06:41:19;;;;;;;29.58;15.75;;;19.10;99.90;;;;;;5001818;28;20026;-49
2021/03/04 06:43:45;;;;;;;29.05;15.02;;;19.10;99.90;;;;;;5001100;28;20093;-50
2021/03/04 06:46:12;;;;;;;29.58;16.15;;;19.10;99.90;;;;;;5005760;28;20026;-49
2021/03/04 06:48:49;;;;;;;30.40;16.30;;;19.10;99.90;;;;;;4995318;28;20022;-48
2021/03/04 06:51:15;;;;;;;30.90;16.65;;;19.10;99.90;;;;;;5001667;28;20069;-49
2021/03/04 06:53:50;;;;;;;28.27;15.35;;;19.10;99.90;;;;;;5002705;28;20022;-50
2021/03/04 06:56:26;;;;;;;24.38;15.95;;;19.10;99.90;;;;;;4994560;28;20022;-50
2021/03/04 06:59:02;;;;;;;25.25;15.73;;;19.10;99.90;;;;;;4994451;28;20073;-50
2021/03/04 07:01:29;;;;;;;27.00;16.33;;;19.10;99.90;;;;;;4993271;28;20038;-51
2021/03/04 07:03:55;;;;;;;29.77;15.55;;;19.10;99.90;;;;;;5011878;28;20547;-50
2021/03/04 07:06:26;;;;;;;26.23;15.45;;;19.10;99.90;;;;;;5008090;28;20056;-49
2021/03/04 07:08:53;;;;;;;26.92;15.43;;;19.10;99.90;;;;;;5012186;28;20092;-50
2021/03/04 07:11:24;;;;;;;22.73;15.68;;;19.10;99.90;;;;;;5010348;28;20109;-50
2021/03/04 07:13:51;;;;;;;27.67;15.35;;;19.00;99.90;;;;;;5012743;28;20088;-48
2021/03/04 07:16:46;;;;;;;21.85;14.88;;;19.00;99.90;;;;;;4998744;28;20076;-50
2021/03/04 07:19:17;;;;;;;26.83;15.07;;;19.00;99.90;;;;;;4993484;28;20038;-48
2021/03/04 07:21:48;;;;;;;26.35;15.20;;;19.00;99.90;;;;;;4994611;28;20030;-49
2021/03/04 07:24:14;;;;;;;30.55;15.50;;;19.10;99.90;;;;;;4994429;28;20033;-49
2021/03/04 07:26:40;;;;;;;30.23;15.82;;;19.00;99.90;;;;;;4993824;28;20025;-51
2021/03/04 07:29:11;;;;;;;28.00;15.95;;;19.00;99.90;;;;;;4993915;28;20022;-49
2021/03/04 07:31:42;;;;;;;29.33;14.88;;;19.00;99.90;;;;;;4993841;28;20023;-51
2021/03/04 07:34:16;;;;;;;26.60;16.02;;;19.10;99.90;;;;;;4993834;28;20101;-50
2021/03/04 07:36:49;;;;;;;25.50;16.55;;;19.10;99.90;;;;;;4993679;28;20079;-50
2021/03/04 07:39:15;;;;;;;28.88;15.52;;;19.10;99.90;;;;;;4993449;28;20464;-50
2021/03/04 07:41:45;;;;;;;25.60;15.30;;;19.10;99.90;;;;;;4993752;28;20031;-50
2021/03/04 07:44:27;;;;;;;30.15;15.98;;;19.10;99.90;;;;;;4994047;28;20022;-49
2021/03/04 07:46:55;;;;;;;20.80;15.23;;;19.10;99.90;;;;;;4994127;28;20019;-48
2021/03/04 07:49:30;;;;;;;26.30;16.05;;;19.20;99.90;;;;;;4994310;28;20023;-48
2021/03/04 07:52:06;;;;;;;26.63;15.18;;;19.20;99.90;;;;;;4994545;28;20038;-48
2021/03/04 07:54:33;;;;;;;25.85;14.98;;;19.30;99.90;;;;;;5009199;28;20036;-49
2021/03/04 07:57:03;;;;;;;23.98;15.52;;;19.30;99.90;;;;;;4994327;28;20484;-51
2021/03/04 07:59:29;;;;;;;26.92;14.82;;;19.30;99.90;;;;;;4993471;28;20034;-51
2021/03/04 08:01:57;;;;;;;22.90;14.23;;;19.30;99.90;;;;;;4993287;28;20038;-50
2021/03/04 08:04:26;;;;;;;33.53;16.55;;;19.30;99.90;;;;;;4993370;28;20050;-50
2021/03/04 08:06:53;;;;;;;27.88;15.20;;;19.40;99.90;;;;;;4993664;28;20030;-49
2021/03/04 08:09:32;;;;;;;27.23;14.10;;;19.30;99.90;;;;;;4993882;28;20030;-50
2021/03/04 08:12:14;;;;;;;36.25;18.08;;;19.30;99.90;;;;;;4993494;28;20477;-50
2021/03/04 08:14:52;;;;;;;32.58;21.50;;;19.30;99.90;;;;;;4993735;28;20034;-49
2021/03/04 08:17:18;;;;;;;51.15;29.00;;;19.40;99.90;;;;;;4993594;28;20082;-47
2021/03/04 08:19:45;;;;;;;46.03;29.08;;;19.40;99.90;;;;;;4992805;28;20433;-47
2021/03/04 08:22:11;;;;;;;41.03;27.38;;;19.40;99.90;;;;;;4993954;28;20174;-46
2021/03/04 08:24:38;;;;;;;47.58;28.35;;;19.40;99.90;;;;;;4993897;28;20418;-49
2021/03/04 08:27:08;;;;;;;34.50;20.73;;;19.40;99.90;;;;;;4992611;28;20025;-51
2021/03/04 08:29:35;;;;;;;45.17;18.20;;;19.40;99.90;;;;;;4994476;28;20377;-44
2021/03/04 08:32:03;;;;;;;39.50;20.23;;;19.40;99.90;;;;;;5012118;28;20073;-46
2021/03/04 08:34:36;;;;;;;31.30;16.98;;;19.40;99.90;;;;;;5012038;28;20029;-45
2021/03/04 08:37:03;;;;;;;34.15;17.08;;;19.40;99.90;;;;;;5011915;28;20040;-45
2021/03/04 08:39:31;;;;;;;37.13;14.52;;;19.40;99.90;;;;;;5010960;28;20488;-49
2021/03/04 08:42:08;;;;;;;34.83;15.65;;;19.40;99.90;;;;;;5011977;28;20038;-48
2021/03/04 08:44:34;;;;;;;37.33;14.73;;;19.40;99.90;;;;;;5012006;28;20097;-48
2021/03/04 08:47:00;;;;;;;34.42;14.40;;;19.40;99.90;;;;;;5011814;28;20419;-48
2021/03/04 08:49:26;;;;;;;37.75;13.70;;;19.40;99.90;;;;;;5011474;28;20108;-46
2021/03/04 08:51:52;;;;;;;29.85;13.77;;;19.30;99.90;;;;;;5010671;28;20116;-46
2021/03/04 08:54:28;;;;;;;33.72;13.50;;;19.30;99.90;;;;;;4997368;28;20034;-48
2021/03/04 08:56:59;;;;;;;35.72;13.20;;;19.20;99.90;;;;;;4992483;28;20025;-45
2021/03/04 08:59:26;;;;;;;37.70;14.63;;;19.20;99.90;;;;;;4992735;28;20026;-48
2021/03/04 09:01:54;;;;;;;35.30;13.65;;;19.10;99.90;;;;;;5000153;28;20060;-38
2021/03/04 09:04:24;;;;;;;32.70;15.18;;;19.10;99.90;;;;;;5010802;28;20122;-38
2021/03/04 09:06:51;;;;;;;32.08;13.98;;;19.10;99.90;;;;;;5012875;28;20498;-39
2021/03/04 09:09:43;;;;;;;29.08;14.43;;;19.10;99.90;;;;;;5012901;28;20472;-36
2021/03/04 09:12:09;;;;;;;35.67;13.13;;;19.00;99.90;;;;;;4994798;28;20117;-38
2021/03/04 09:14:35;;;;;;;30.73;13.32;;;19.00;99.90;;;;;;5012968;28;20029;-38
2021/03/04 09:17:01;;;;;;;36.60;13.32;;;19.00;99.90;;;;;;5013005;28;20034;-38
2021/03/04 09:19:32;;;;;;;28.17;13.57;;;19.00;99.90;;;;;;5013052;28;20029;-36
2021/03/04 09:22:03;;;;;;;29.52;17.75;;;18.90;99.90;;;;;;5011762;28;20030;-35
2021/03/04 09:24:29;;;;;;;40.47;19.63;;;18.90;99.90;;;;;;5011766;28;20022;-36
2021/03/04 09:26:56;;;;;;;74.13;46.08;;;18.90;99.90;;;;;;5011233;28;20471;-37
2021/03/04 09:29:22;;;;;;;62.90;37.97;;;18.90;99.90;;;;;;5013089;28;20092;-35
2021/03/04 09:31:53;;;;;;;34.33;17.15;;;19.00;99.90;;;;;;5012983;28;20349;-37
2021/03/04 09:34:29;;;;;;;28.25;13.93;;;19.10;99.90;;;;;;5013165;28;20085;-37
2021/03/04 09:37:13;;;;;;;32.30;14.20;;;19.10;99.90;;;;;;5012302;28;20014;-37
2021/03/04 09:39:46;;;;;;;35.25;13.65;;;19.10;99.90;;;;;;5001950;28;20499;-37
2021/03/04 09:42:14;;;;;;;32.63;14.32;;;19.10;99.90;;;;;;4993380;28;20041;-36
2021/03/04 09:44:54;;;;;;;39.38;13.25;;;19.00;99.90;;;;;;4993503;28;20029;-36
2021/03/04 09:47:26;;;;;;;34.03;13.88;;;19.00;99.90;;;;;;5009483;28;20123;-36
2021/03/04 09:49:53;;;;;;;26.25;14.63;;;19.00;99.90;;;;;;4993203;28;20034;-36
2021/03/04 09:52:24;;;;;;;117.13;73.07;;;19.00;99.90;;;;;;4993332;28;20037;-36
2021/03/04 09:54:51;;;;;;;94.53;67.30;;;19.00;99.90;;;;;;4993232;28;20041;-36
2021/03/04 09:57:21;;;;;;;80.43;50.95;;;19.10;99.90;;;;;;4998405;28;20117;-37
2021/03/04 09:59:47;;;;;;;72.03;45.63;;;19.20;99.90;;;;;;4993615;28;20034;-36
2021/03/04 10:02:13;;;;;;;70.55;46.70;;;19.20;99.90;;;;;;4995711;28;20325;-38
2021/03/04 10:04:51;;;;;;;90.03;45.72;;;19.30;99.90;;;;;;5012115;28;20129;-38
2021/03/04 10:07:21;;;;;;;63.20;43.33;;;19.30;99.90;;;;;;5014744;28;20080;-36
2021/03/04 10:09:47;;;;;;;61.83;42.72;;;19.40;99.90;;;;;;5016063;28;20029;-36
2021/03/04 10:12:13;;;;;;;61.08;42.85;;;19.40;99.90;;;;;;5015967;28;20076;-36
2021/03/04 10:14:48;;;;;;;57.33;41.53;;;19.40;99.90;;;;;;5015919;28;20032;-36
2021/03/04 10:17:14;;;;;;;61.80;42.03;;;19.50;99.90;;;;;;5009930;28;20057;-37
2021/03/04 10:19:41;;;;;;;64.50;42.60;;;19.50;99.90;;;;;;5007114;28;20026;-37
2021/03/04 10:22:08;;;;;;;60.92;38.42;;;19.50;99.90;;;;;;5004353;28;20030;-38
2021/03/04 10:24:35;;;;;;;52.35;36.53;;;19.50;99.90;;;;;;5009998;28;20045;-36
2021/03/04 10:27:01;;;;;;;54.35;36.55;;;19.60;99.90;;;;;;5015609;28;20112;-36
2021/03/04 10:29:28;;;;;;;62.63;37.10;;;19.60;99.90;;;;;;5015868;28;20865;-37
2021/03/04 10:31:55;;;;;;;58.38;37.85;;;19.60;99.90;;;;;;5015959;28;20034;-36
2021/03/04 10:34:21;;;;;;;51.87;35.93;;;19.60;99.90;;;;;;5015732;28;20538;-39
2021/03/04 10:36:47;;;;;;;50.63;36.35;;;19.70;99.90;;;;;;5015867;28;20018;-38
2021/03/04 10:39:17;;;;;;;51.35;36.22;;;19.70;99.90;;;;;;5015851;28;20344;-38
2021/03/04 10:41:43;;;;;;;51.63;36.30;;;19.70;99.90;;;;;;5015521;28;20033;-38
2021/03/04 10:44:11;;;;;;;58.28;35.47;;;19.70;99.90;;;;;;5015681;28;20124;-38
2021/03/04 10:46:37;;;;;;;47.25;34.75;;;19.70;99.90;;;;;;5015832;28;20373;-37
2021/03/04 10:49:05;;;;;;;54.85;33.38;;;19.80;99.90;;;;;;5015659;28;20022;-36
2021/03/04 10:51:32;;;;;;;56.47;34.92;;;19.80;99.90;;;;;;5015780;28;20014;-37
2021/03/04 10:53:58;;;;;;;47.22;35.70;;;19.80;99.90;;;;;;5015425;28;20017;-36
2021/03/04 10:56:23;;;;;;;46.30;32.72;;;19.80;99.90;;;;;;5015579;28;20916;-36
2021/03/04 10:58:50;;;;;;;47.10;32.90;;;19.80;99.90;;;;;;5015633;28;20084;-37
2021/03/04 11:01:16;;;;;;;54.83;35.92;;;19.80;99.90;;;;;;5014070;28;20026;-36
2021/03/04 11:03:42;;;;;;;44.35;29.45;;;19.90;99.90;;;;;;5015127;28;20046;-36
2021/03/04 11:06:08;;;;;;;45.60;31.58;;;19.90;99.90;;;;;;5015341;28;20022;-36
2021/03/04 11:08:34;;;;;;;47.30;29.60;;;19.90;99.90;;;;;;5015304;28;20018;-36
2021/03/04 11:11:00;;;;;;;43.13;29.90;;;19.90;99.90;;;;;;5012134;28;20022;-39
2021/03/04 11:13:25;;;;;;;42.53;28.65;;;19.90;99.90;;;;;;5014638;28;20104;-38
2021/03/04 11:15:51;;;;;;;39.08;26.42;;;20.00;99.90;;;;;;5015322;28;20036;-37
2021/03/04 11:18:17;;;;;;;38.08;25.08;;;19.90;99.90;;;;;;5015109;28;20028;-38
2021/03/04 11:20:43;;;;;;;42.30;25.60;;;19.90;99.90;;;;;;5015242;28;20026;-36
2021/03/04 11:23:09;;;;;;;35.88;22.10;;;19.90;99.90;;;;;;5015045;28;20053;-37
2021/03/04 11:25:35;;;;;;;35.67;23.40;;;19.90;99.90;;;;;;5014819;28;20036;-36
2021/03/04 11:28:01;;;;;;;41.78;28.73;;;20.00;99.90;;;;;;5001891;28;20473;-36
2021/03/04 11:30:28;;;;;;;44.53;28.48;;;20.00;99.90;;;;;;4994979;28;20057;-36
2021/03/04 11:32:56;;;;;;;74.22;49.60;;;20.00;99.90;;;;;;4995420;28;20092;-36
2021/03/04 11:35:27;;;;;;;;;;;20.00;99.90;;;;;;4995590;28;20357;-36
2021/03/04 11:37:54;;;;;;;64.15;44.30;;;20.10;99.90;;;;;;4995143;28;19960;-36
2021/03/04 11:40:20;;;;;;;60.95;45.70;;;20.10;99.90;;;;;;4994836;28;20030;-36
2021/03/04 11:42:46;;;;;;;58.17;41.58;;;20.20;99.90;;;;;;4994943;28;20038;-36
2021/03/04 11:45:13;;;;;;;54.63;38.58;;;20.20;99.90;;;;;;5009766;28;20392;-36
2021/03/04 11:47:38;;;;;;;48.65;36.67;;;20.20;99.90;;;;;;4994702;28;20033;-36
2021/03/04 11:50:05;;;;;;;45.33;33.28;;;20.20;99.90;;;;;;4994743;28;20491;-36
2021/03/04 11:52:31;;;;;;;51.73;30.67;;;20.30;99.90;;;;;;4993535;28;20018;-35
2021/03/04 11:54:57;;;;;;;41.05;27.20;;;20.30;99.90;;;;;;4994444;28;20430;-36
2021/03/04 11:57:23;;;;;;;37.80;23.00;;;20.30;99.90;;;;;;4994522;28;20028;-37
2021/03/04 11:59:48;;;;;;;39.13;22.90;;;20.30;99.90;;;;;;4994546;28;20038;-36
2021/03/04 12:02:15;;;;;;;35.63;21.33;;;20.30;99.90;;;;;;4994358;28;20057;-38
2021/03/04 12:04:42;;;;;;;35.35;20.23;;;20.40;99.90;;;;;;5009256;28;20050;-37
2021/03/04 12:07:08;;;;;;;32.65;18.95;;;20.40;99.90;;;;;;5009558;28;20095;-37
2021/03/04 12:09:34;;;;;;;36.10;17.90;;;20.40;99.90;;;;;;4994241;28;20027;-37
2021/03/04 12:12:00;;;;;;;34.38;16.98;;;20.40;99.90;;;;;;4994296;28;20134;-37
2021/03/04 12:14:26;;;;;;;59.70;18.90;;;20.40;99.90;;;;;;5009286;28;20479;-36
2021/03/04 12:16:51;;;;;;;27.20;17.42;;;20.50;99.90;;;;;;4994319;28;20044;-36
2021/03/04 12:19:17;;;;;;;31.10;20.13;;;20.50;99.90;;;;;;4994462;28;20473;-37
2021/03/04 12:21:44;;;;;;;39.03;20.38;;;20.50;99.90;;;;;;5009457;28;20022;-37
2021/03/04 12:24:10;;;;;;;37.35;20.25;;;20.50;99.90;;;;;;4993390;28;20535;-36
2021/03/04 12:26:36;;;;;;;28.83;19.02;;;20.50;99.90;;;;;;4993690;28;20031;-37
2021/03/04 12:29:02;;;;;;;39.97;20.50;;;20.50;99.90;;;;;;4993993;28;20027;-37
2021/03/04 12:31:28;;;;;;;39.25;20.70;;;20.60;99.90;;;;;;5009079;28;20022;-38